sensor_id;sensor_type;location;lat;lon;timestamp;pressure;altitude;pressure_sealevel;temperature;humidity
7940;BME280;4015;48.888;9.226;2023-02-02T00:00:57;156846.09;;;6.36;79.19
7940;BME280;4015;48.888;9.226;2023-02-02T00:03:23;156839.69;;;6.34;79.09
7940;BME280;4015;48.888;9.226;2023-02-02T00:05:50;156842.22;;;6.35;79.51
7940;BME280;4015;48.888;9.226;2023-02-02T00:08:17;156846.09;;;6.36;79.46
7940;BME280;4015;48.888;9.226;2023-02-02T00:10:43;156842.22;;;6.35;79.64
7940;BME280;4015;48.888;9.226;2023-02-02T00:13:09;156863.91;;;6.43;78.80
7940;BME280;4015;48.888;9.226;2023-02-02T00:15:35;156857.53;;;6.41;79.36
7940;BME280;4015;48.888;9.226;2023-02-02T00:18:00;156853.72;;;6.39;79.70
7940;BME280;4015;48.888;9.226;2023-02-02T00:20:26;156857.53;;;6.41;79.41
7940;BME280;4015;48.888;9.226;2023-02-02T00:22:51;156849.91;;;6.38;79.41
7940;BME280;4015;48.888;9.226;2023-02-02T00:25:17;156849.91;;;6.38;79.65
7940;BME280;4015;48.888;9.226;2023-02-02T00:27:43;156848.63;;;6.37;79.26
7940;BME280;4015;48.888;9.226;2023-02-02T00:30:08;156862.66;;;6.43;79.40
7940;BME280;4015;48.888;9.226;2023-02-02T00:32:34;156861.38;;;6.42;79.85
7940;BME280;4015;48.888;9.226;2023-02-02T00:34:59;156867.72;;;6.45;79.89
7940;BME280;4015;48.888;9.226;2023-02-02T00:37:25;156880.47;;;6.50;79.62
7940;BME280;4015;48.888;9.226;2023-02-02T00:39:50;156895.75;;;6.56;78.91
7940;BME280;4015;48.888;9.226;2023-02-02T00:42:16;156875.41;;;6.48;79.40
7940;BME280;4015;48.888;9.226;2023-02-02T00:44:41;156870.28;;;6.46;79.39
7940;BME280;4015;48.888;9.226;2023-02-02T00:47:25;156857.53;;;6.41;79.21
7940;BME280;4015;48.888;9.226;2023-02-02T00:49:50;156846.09;;;6.36;80.09
7940;BME280;4015;48.888;9.226;2023-02-02T00:52:16;156863.91;;;6.43;80.36
7940;BME280;4015;48.888;9.226;2023-02-02T00:54:41;156865.19;;;6.44;79.96
7940;BME280;4015;48.888;9.226;2023-02-02T00:57:06;156860.09;;;6.42;80.03
7940;BME280;4015;48.888;9.226;2023-02-02T00:59:32;156844.81;;;6.36;80.62
7940;BME280;4015;48.888;9.226;2023-02-02T01:01:57;156854.97;;;6.40;80.05
7940;BME280;4015;48.888;9.226;2023-02-02T01:04:23;156862.66;;;6.43;80.37
7940;BME280;4015;48.888;9.226;2023-02-02T01:06:48;156846.09;;;6.36;81.06
7940;BME280;4015;48.888;9.226;2023-02-02T01:09:14;156858.84;;;6.41;81.07
7940;BME280;4015;48.888;9.226;2023-02-02T01:11:39;156856.25;;;6.40;81.17
7940;BME280;4015;48.888;9.226;2023-02-02T01:14:04;156861.38;;;6.42;80.72
7940;BME280;4015;48.888;9.226;2023-02-02T01:16:30;156858.84;;;6.41;81.00
7940;BME280;4015;48.888;9.226;2023-02-02T01:18:55;156847.38;;;6.37;81.64
7940;BME280;4015;48.888;9.226;2023-02-02T01:21:21;156857.53;;;6.41;81.31
7940;BME280;4015;48.888;9.226;2023-02-02T01:23:47;156871.53;;;6.46;81.14
7940;BME280;4015;48.888;9.226;2023-02-02T01:26:13;156874.13;;;6.47;81.74
7940;BME280;4015;48.888;9.226;2023-02-02T01:28:39;156875.41;;;6.48;81.60
7940;BME280;4015;48.888;9.226;2023-02-02T01:31:09;156856.25;;;6.40;82.71
7940;BME280;4015;48.888;9.226;2023-02-02T01:33:36;156844.81;;;6.36;82.63
7940;BME280;4015;48.888;9.226;2023-02-02T01:36:05;156842.22;;;6.35;82.99
7940;BME280;4015;48.888;9.226;2023-02-02T01:38:31;156849.91;;;6.38;83.24
7940;BME280;4015;48.888;9.226;2023-02-02T01:40:57;156846.09;;;6.36;83.33
7940;BME280;4015;48.888;9.226;2023-02-02T01:45:50;156825.69;;;6.28;84.21
7940;BME280;4015;48.888;9.226;2023-02-02T01:48:23;156829.53;;;6.30;83.68
7940;BME280;4015;48.888;9.226;2023-02-02T01:50:52;156828.25;;;6.29;83.92
7940;BME280;4015;48.888;9.226;2023-02-02T01:53:20;156838.44;;;6.33;83.92
7940;BME280;4015;48.888;9.226;2023-02-02T01:55:47;156830.81;;;6.30;84.12
7940;BME280;4015;48.888;9.226;2023-02-02T01:58:35;156818.06;;;6.25;84.42
7940;BME280;4015;48.888;9.226;2023-02-02T02:01:02;156815.53;;;6.24;84.17
7940;BME280;4015;48.888;9.226;2023-02-02T02:03:30;156811.72;;;6.22;84.24
7940;BME280;4015;48.888;9.226;2023-02-02T02:06:02;156815.53;;;6.24;84.37
7940;BME280;4015;48.888;9.226;2023-02-02T02:08:34;156807.84;;;6.21;84.47
7940;BME280;4015;48.888;9.226;2023-02-02T02:11:02;156806.59;;;6.20;84.54
7940;BME280;4015;48.888;9.226;2023-02-02T02:13:29;156816.78;;;6.25;84.14
7940;BME280;4015;48.888;9.226;2023-02-02T02:23:07;156825.69;;;6.28;85.36
7940;BME280;4015;48.888;9.226;2023-02-02T02:37:59;156753.09;;;5.99;89.80
7940;BME280;4015;48.888;9.226;2023-02-02T02:40:31;156740.38;;;5.94;89.00
7940;BME280;4015;48.888;9.226;2023-02-02T02:43:01;156753.09;;;5.99;88.90
7940;BME280;4015;48.888;9.226;2023-02-02T02:45:30;156760.72;;;6.02;88.84
7940;BME280;4015;48.888;9.226;2023-02-02T02:47:56;156769.66;;;6.06;88.08
7940;BME280;4015;48.888;9.226;2023-02-02T02:50:22;156770.94;;;6.06;88.07
7940;BME280;4015;48.888;9.226;2023-02-02T02:52:48;156779.88;;;6.10;87.48
7940;BME280;4015;48.888;9.226;2023-02-02T02:55:19;156790.03;;;6.14;87.34
7940;BME280;4015;48.888;9.226;2023-02-02T02:58:07;156802.78;;;6.19;87.98
7940;BME280;4015;48.888;9.226;2023-02-02T03:00:58;156784.94;;;6.12;87.42
7940;BME280;4015;48.888;9.226;2023-02-02T03:03:32;156806.59;;;6.20;87.97
7940;BME280;4015;48.888;9.226;2023-02-02T03:09:03;156812.97;;;6.23;87.81
7940;BME280;4015;48.888;9.226;2023-02-02T03:11:30;156811.72;;;6.22;88.06
7940;BME280;4015;48.888;9.226;2023-02-02T03:13:56;156804.03;;;6.19;87.61
7940;BME280;4015;48.888;9.226;2023-02-02T03:16:21;156797.69;;;6.17;87.69
7940;BME280;4015;48.888;9.226;2023-02-02T03:18:46;156802.78;;;6.19;87.75
7940;BME280;4015;48.888;9.226;2023-02-02T03:21:12;156811.72;;;6.22;87.17
7940;BME280;4015;48.888;9.226;2023-02-02T03:23:37;156816.78;;;6.25;86.84
7940;BME280;4015;48.888;9.226;2023-02-02T03:26:03;156824.41;;;6.28;87.68
7940;BME280;4015;48.888;9.226;2023-02-02T03:28:29;156828.25;;;6.29;86.61
7940;BME280;4015;48.888;9.226;2023-02-02T03:30:56;156825.69;;;6.28;86.22
7940;BME280;4015;48.888;9.226;2023-02-02T03:33:23;156830.81;;;6.30;86.35
7940;BME280;4015;48.888;9.226;2023-02-02T03:35:48;156825.69;;;6.28;86.42
7940;BME280;4015;48.888;9.226;2023-02-02T03:38:13;156843.56;;;6.35;86.13
7940;BME280;4015;48.888;9.226;2023-02-02T03:40:39;156846.09;;;6.36;85.85
7940;BME280;4015;48.888;9.226;2023-02-02T03:43:04;156847.38;;;6.37;85.22
7940;BME280;4015;48.888;9.226;2023-02-02T03:45:30;156842.22;;;6.35;85.88
7940;BME280;4015;48.888;9.226;2023-02-02T03:47:56;156852.44;;;6.39;86.20
7940;BME280;4015;48.888;9.226;2023-02-02T03:50:22;156846.09;;;6.36;85.59
7940;BME280;4015;48.888;9.226;2023-02-02T03:52:49;156854.97;;;6.40;85.90
7940;BME280;4015;48.888;9.226;2023-02-02T03:55:14;156846.09;;;6.36;85.76
7940;BME280;4015;48.888;9.226;2023-02-02T03:57:40;156852.44;;;6.39;85.85
7940;BME280;4015;48.888;9.226;2023-02-02T04:00:07;156860.09;;;6.42;85.86
7940;BME280;4015;48.888;9.226;2023-02-02T04:02:32;156860.09;;;6.42;85.39
7940;BME280;4015;48.888;9.226;2023-02-02T04:04:58;156858.84;;;6.41;85.33
7940;BME280;4015;48.888;9.226;2023-02-02T04:07:23;156869.00;;;6.45;85.10
7940;BME280;4015;48.888;9.226;2023-02-02T04:09:48;156880.47;;;6.50;85.23
7940;BME280;4015;48.888;9.226;2023-02-02T04:12:14;156863.91;;;6.43;85.96
7940;BME280;4015;48.888;9.226;2023-02-02T04:14:39;156883.03;;;6.51;85.33
7940;BME280;4015;48.888;9.226;2023-02-02T04:17:04;156863.91;;;6.43;85.82
7940;BME280;4015;48.888;9.226;2023-02-02T04:19:30;156858.84;;;6.41;85.10
7940;BME280;4015;48.888;9.226;2023-02-02T04:21:55;156871.53;;;6.46;85.43
7940;BME280;4015;48.888;9.226;2023-02-02T04:24:20;156877.94;;;6.49;85.48
7940;BME280;4015;48.888;9.226;2023-02-02T04:26:46;156854.97;;;6.40;85.76
7940;BME280;4015;48.888;9.226;2023-02-02T04:29:11;156877.94;;;6.49;85.54
7940;BME280;4015;48.888;9.226;2023-02-02T04:31:36;156860.09;;;6.42;85.68
7940;BME280;4015;48.888;9.226;2023-02-02T04:34:02;156860.09;;;6.42;85.80
7940;BME280;4015;48.888;9.226;2023-02-02T04:36:27;156863.91;;;6.43;85.52
7940;BME280;4015;48.888;9.226;2023-02-02T04:38:53;156862.66;;;6.43;85.70
7940;BME280;4015;48.888;9.226;2023-02-02T04:41:20;156867.72;;;6.45;85.80
7940;BME280;4015;48.888;9.226;2023-02-02T04:43:46;156871.53;;;6.46;85.40
7940;BME280;4015;48.888;9.226;2023-02-02T04:46:12;156886.81;;;6.53;85.10
7940;BME280;4015;48.888;9.226;2023-02-02T04:48:37;156889.38;;;6.54;85.03
7940;BME280;4015;48.888;9.226;2023-02-02T04:51:05;156890.69;;;6.54;84.76
7940;BME280;4015;48.888;9.226;2023-02-02T04:53:31;156898.31;;;6.57;84.80
7940;BME280;4015;48.888;9.226;2023-02-02T04:55:57;156889.38;;;6.54;84.72
7940;BME280;4015;48.888;9.226;2023-02-02T04:58:22;156883.03;;;6.51;84.81
7940;BME280;4015;48.888;9.226;2023-02-02T05:00:48;156897.03;;;6.57;84.73
7940;BME280;4015;48.888;9.226;2023-02-02T05:03:13;156902.13;;;6.59;84.94
7940;BME280;4015;48.888;9.226;2023-02-02T05:05:38;156903.38;;;6.59;84.65
7940;BME280;4015;48.888;9.226;2023-02-02T05:08:04;156913.59;;;6.63;84.88
7940;BME280;4015;48.888;9.226;2023-02-02T05:10:31;156903.38;;;6.59;84.47
7940;BME280;4015;48.888;9.226;2023-02-02T05:12:57;156926.34;;;6.68;84.31
7940;BME280;4015;48.888;9.226;2023-02-02T05:15:22;156919.94;;;6.66;84.17
7940;BME280;4015;48.888;9.226;2023-02-02T05:17:48;156922.53;;;6.67;84.58
7940;BME280;4015;48.888;9.226;2023-02-02T05:20:13;156921.25;;;6.66;84.45
7940;BME280;4015;48.888;9.226;2023-02-02T05:22:39;156921.25;;;6.66;83.96
7940;BME280;4015;48.888;9.226;2023-02-02T05:25:05;156930.16;;;6.70;84.25
7940;BME280;4015;48.888;9.226;2023-02-02T05:27:31;156919.94;;;6.66;84.22
7940;BME280;4015;48.888;9.226;2023-02-02T05:29:56;156918.69;;;6.65;84.20
7940;BME280;4015;48.888;9.226;2023-02-02T05:32:21;156927.63;;;6.69;84.31
7940;BME280;4015;48.888;9.226;2023-02-02T05:34:47;156922.53;;;6.67;84.74
7940;BME280;4015;48.888;9.226;2023-02-02T05:37:12;156908.50;;;6.61;84.65
7940;BME280;4015;48.888;9.226;2023-02-02T05:39:37;156891.97;;;6.55;85.09
7940;BME280;4015;48.888;9.226;2023-02-02T05:42:03;156909.78;;;6.62;84.62
7940;BME280;4015;48.888;9.226;2023-02-02T05:44:28;156905.97;;;6.60;84.68
7940;BME280;4015;48.888;9.226;2023-02-02T05:46:54;156921.25;;;6.66;84.69
7940;BME280;4015;48.888;9.226;2023-02-02T05:49:19;156902.13;;;6.59;84.89
7940;BME280;4015;48.888;9.226;2023-02-02T05:51:51;156900.84;;;6.58;84.93
7940;BME280;4015;48.888;9.226;2023-02-02T05:54:18;156911.06;;;6.62;84.54
7940;BME280;4015;48.888;9.226;2023-02-02T05:56:49;156909.78;;;6.62;84.91
7940;BME280;4015;48.888;9.226;2023-02-02T05:59:17;156907.25;;;6.61;84.65
7940;BME280;4015;48.888;9.226;2023-02-02T06:01:43;156899.56;;;6.58;84.95
7940;BME280;4015;48.888;9.226;2023-02-02T06:04:09;156898.31;;;6.57;84.90
7940;BME280;4015;48.888;9.226;2023-02-02T06:06:34;156890.69;;;6.54;85.07
7940;BME280;4015;48.888;9.226;2023-02-02T06:09:02;156905.97;;;6.60;84.60
7940;BME280;4015;48.888;9.226;2023-02-02T06:11:28;156917.41;;;6.65;85.22
7940;BME280;4015;48.888;9.226;2023-02-02T06:13:53;156918.69;;;6.65;84.76
7940;BME280;4015;48.888;9.226;2023-02-02T06:16:19;156923.81;;;6.67;84.48
7940;BME280;4015;48.888;9.226;2023-02-02T06:18:44;156916.13;;;6.64;85.01
7940;BME280;4015;48.888;9.226;2023-02-02T06:21:10;156905.97;;;6.60;85.05
7940;BME280;4015;48.888;9.226;2023-02-02T06:23:35;156919.94;;;6.66;85.05
7940;BME280;4015;48.888;9.226;2023-02-02T06:26:01;156913.59;;;6.63;84.78
7940;BME280;4015;48.888;9.226;2023-02-02T06:28:29;156886.81;;;6.53;85.25
7940;BME280;4015;48.888;9.226;2023-02-02T06:30:54;156908.50;;;6.61;85.19
7940;BME280;4015;48.888;9.226;2023-02-02T06:33:19;156899.56;;;6.58;84.90
7940;BME280;4015;48.888;9.226;2023-02-02T06:35:45;156903.38;;;6.59;85.21
7940;BME280;4015;48.888;9.226;2023-02-02T06:38:10;156900.84;;;6.58;84.83
7940;BME280;4015;48.888;9.226;2023-02-02T06:40:35;156899.56;;;6.58;85.11
7940;BME280;4015;48.888;9.226;2023-02-02T06:43:02;156898.31;;;6.57;84.96
7940;BME280;4015;48.888;9.226;2023-02-02T06:45:29;156898.31;;;6.57;85.07
7940;BME280;4015;48.888;9.226;2023-02-02T06:47:58;156876.66;;;6.48;85.27
7940;BME280;4015;48.888;9.226;2023-02-02T06:50:29;156874.13;;;6.47;85.60
7940;BME280;4015;48.888;9.226;2023-02-02T06:52:54;156880.47;;;6.50;84.96
7940;BME280;4015;48.888;9.226;2023-02-02T06:55:19;156874.13;;;6.47;85.33
7940;BME280;4015;48.888;9.226;2023-02-02T06:57:45;156881.75;;;6.51;85.79
7940;BME280;4015;48.888;9.226;2023-02-02T07:00:11;156895.75;;;6.56;85.38
7940;BME280;4015;48.888;9.226;2023-02-02T07:02:37;156899.56;;;6.58;85.43
7940;BME280;4015;48.888;9.226;2023-02-02T07:05:03;156890.69;;;6.54;85.35
7940;BME280;4015;48.888;9.226;2023-02-02T07:07:33;156893.22;;;6.55;85.42
7940;BME280;4015;48.888;9.226;2023-02-02T07:09:58;156902.13;;;6.59;85.56
7940;BME280;4015;48.888;9.226;2023-02-02T07:12:24;156897.03;;;6.57;85.60
7940;BME280;4015;48.888;9.226;2023-02-02T07:14:51;156918.69;;;6.65;85.25
7940;BME280;4015;48.888;9.226;2023-02-02T07:17:16;156894.50;;;6.56;85.74
7940;BME280;4015;48.888;9.226;2023-02-02T07:19:42;156894.50;;;6.56;85.66
7940;BME280;4015;48.888;9.226;2023-02-02T07:22:07;156890.69;;;6.54;85.00
7940;BME280;4015;48.888;9.226;2023-02-02T07:24:32;156907.25;;;6.61;85.31
7940;BME280;4015;48.888;9.226;2023-02-02T07:26:57;156914.88;;;6.64;84.77
7940;BME280;4015;48.888;9.226;2023-02-02T07:29:23;156911.06;;;6.62;85.22
7940;BME280;4015;48.888;9.226;2023-02-02T07:31:48;156930.16;;;6.70;84.92
7940;BME280;4015;48.888;9.226;2023-02-02T07:34:14;156932.69;;;6.71;84.58
7940;BME280;4015;48.888;9.226;2023-02-02T07:36:39;156945.44;;;6.76;84.30
7940;BME280;4015;48.888;9.226;2023-02-02T07:39:05;156922.53;;;6.67;84.39
7940;BME280;4015;48.888;9.226;2023-02-02T07:41:33;156913.59;;;6.63;84.73
7940;BME280;4015;48.888;9.226;2023-02-02T07:43:59;156902.13;;;6.59;84.79
7940;BME280;4015;48.888;9.226;2023-02-02T07:46:24;156897.03;;;6.57;84.85
7940;BME280;4015;48.888;9.226;2023-02-02T07:48:52;156918.69;;;6.65;84.39
7940;BME280;4015;48.888;9.226;2023-02-02T07:51:19;156907.25;;;6.61;84.68
7940;BME280;4015;48.888;9.226;2023-02-02T07:53:47;156913.59;;;6.63;84.16
7940;BME280;4015;48.888;9.226;2023-02-02T07:56:14;156895.75;;;6.56;84.42
7940;BME280;4015;48.888;9.226;2023-02-02T07:58:40;156912.31;;;6.63;84.50
7940;BME280;4015;48.888;9.226;2023-02-02T08:01:08;156927.63;;;6.69;84.26
7940;BME280;4015;48.888;9.226;2023-02-02T08:03:34;156940.38;;;6.74;84.16
7940;BME280;4015;48.888;9.226;2023-02-02T08:06:00;156976.03;;;6.88;83.51
7940;BME280;4015;48.888;9.226;2023-02-02T08:08:26;156981.13;;;6.90;83.25
7940;BME280;4015;48.888;9.226;2023-02-02T08:10:53;156997.69;;;6.97;83.30
7940;BME280;4015;48.888;9.226;2023-02-02T08:13:18;157005.34;;;7.00;82.58
7940;BME280;4015;48.888;9.226;2023-02-02T08:15:44;157000.25;;;6.98;82.55
7940;BME280;4015;48.888;9.226;2023-02-02T08:18:10;157015.56;;;7.04;82.70
7940;BME280;4015;48.888;9.226;2023-02-02T08:20:35;157016.81;;;7.05;82.70
7940;BME280;4015;48.888;9.226;2023-02-02T08:23:01;157024.44;;;7.08;81.96
7940;BME280;4015;48.888;9.226;2023-02-02T08:25:26;157037.22;;;7.13;81.70
7940;BME280;4015;48.888;9.226;2023-02-02T08:27:53;157038.47;;;7.13;82.03
7940;BME280;4015;48.888;9.226;2023-02-02T08:30:19;157034.66;;;7.12;81.75
7940;BME280;4015;48.888;9.226;2023-02-02T08:32:44;157060.13;;;7.22;81.71
7940;BME280;4015;48.888;9.226;2023-02-02T08:35:09;157049.97;;;7.18;81.78
7940;BME280;4015;48.888;9.226;2023-02-02T08:37:35;157033.41;;;7.11;82.35
7940;BME280;4015;48.888;9.226;2023-02-02T08:40:00;157039.75;;;7.14;82.49
7940;BME280;4015;48.888;9.226;2023-02-02T08:42:26;157051.22;;;7.18;82.63
7940;BME280;4015;48.888;9.226;2023-02-02T08:44:51;157043.56;;;7.15;82.72
7940;BME280;4015;48.888;9.226;2023-02-02T08:47:16;157032.13;;;7.11;82.88
7940;BME280;4015;48.888;9.226;2023-02-02T08:49:42;157033.41;;;7.11;82.82
7940;BME280;4015;48.888;9.226;2023-02-02T08:52:09;157038.47;;;7.13;82.86
7940;BME280;4015;48.888;9.226;2023-02-02T08:54:34;157012.97;;;7.03;82.75
7940;BME280;4015;48.888;9.226;2023-02-02T08:56:59;157002.81;;;6.99;82.73
7940;BME280;4015;48.888;9.226;2023-02-02T08:59:25;157016.81;;;7.05;83.35
7940;BME280;4015;48.888;9.226;2023-02-02T09:01:50;157005.34;;;7.00;83.14
7940;BME280;4015;48.888;9.226;2023-02-02T09:04:15;157011.69;;;7.02;83.66
7940;BME280;4015;48.888;9.226;2023-02-02T09:06:41;157009.16;;;7.01;83.76
7940;BME280;4015;48.888;9.226;2023-02-02T09:09:10;157005.34;;;7.00;83.58
7940;BME280;4015;48.888;9.226;2023-02-02T09:11:36;157024.44;;;7.08;83.32
7940;BME280;4015;48.888;9.226;2023-02-02T09:14:02;156997.69;;;6.97;83.94
7940;BME280;4015;48.888;9.226;2023-02-02T09:16:31;157002.81;;;6.99;83.98
7940;BME280;4015;48.888;9.226;2023-02-02T09:18:57;157000.25;;;6.98;84.25
7940;BME280;4015;48.888;9.226;2023-02-02T09:21:23;157007.88;;;7.01;83.87
7940;BME280;4015;48.888;9.226;2023-02-02T09:23:49;156998.94;;;6.97;84.28
7940;BME280;4015;48.888;9.226;2023-02-02T09:26:16;157002.81;;;6.99;84.40
7940;BME280;4015;48.888;9.226;2023-02-02T09:28:45;156998.94;;;6.97;84.58
7940;BME280;4015;48.888;9.226;2023-02-02T09:31:11;156992.59;;;6.95;84.91
7940;BME280;4015;48.888;9.226;2023-02-02T09:33:37;157006.63;;;7.00;84.96
7940;BME280;4015;48.888;9.226;2023-02-02T09:36:04;157009.16;;;7.01;84.71
7940;BME280;4015;48.888;9.226;2023-02-02T09:38:29;157006.63;;;7.00;85.06
7940;BME280;4015;48.888;9.226;2023-02-02T09:40:55;157034.66;;;7.12;84.44
7940;BME280;4015;48.888;9.226;2023-02-02T09:43:39;157030.81;;;7.10;84.72
7940;BME280;4015;48.888;9.226;2023-02-02T09:48:51;157012.97;;;7.03;84.78
7940;BME280;4015;48.888;9.226;2023-02-02T09:51:21;156981.13;;;6.90;85.46
7940;BME280;4015;48.888;9.226;2023-02-02T09:53:52;156974.75;;;6.88;85.91
7940;BME280;4015;48.888;9.226;2023-02-02T09:56:27;157004.06;;;6.99;85.63
7940;BME280;4015;48.888;9.226;2023-02-02T09:58:56;156984.97;;;6.92;86.03
7940;BME280;4015;48.888;9.226;2023-02-02T10:01:30;156992.59;;;6.95;86.58
7940;BME280;4015;48.888;9.226;2023-02-02T10:04:18;157006.63;;;7.00;86.09
7940;BME280;4015;48.888;9.226;2023-02-02T10:06:53;157016.81;;;7.05;85.89
7940;BME280;4015;48.888;9.226;2023-02-02T10:09:39;157033.41;;;7.11;85.51
7940;BME280;4015;48.888;9.226;2023-02-02T10:19:59;157037.22;;;7.13;85.02
7940;BME280;4015;48.888;9.226;2023-02-02T10:22:28;157024.44;;;7.08;84.83
7940;BME280;4015;48.888;9.226;2023-02-02T10:24:57;157018.09;;;7.05;85.07
7940;BME280;4015;48.888;9.226;2023-02-02T10:27:38;156997.69;;;6.97;85.39
7940;BME280;4015;48.888;9.226;2023-02-02T10:30:24;157012.97;;;7.03;85.67
7940;BME280;4015;48.888;9.226;2023-02-02T10:33:23;157024.44;;;7.08;85.48
7940;BME280;4015;48.888;9.226;2023-02-02T10:35:56;156997.69;;;6.97;86.57
7940;BME280;4015;48.888;9.226;2023-02-02T10:38:52;156984.97;;;6.92;87.87
7940;BME280;4015;48.888;9.226;2023-02-02T10:41:29;157012.97;;;7.03;88.77
7940;BME280;4015;48.888;9.226;2023-02-02T10:44:06;157024.44;;;7.08;88.19
7940;BME280;4015;48.888;9.226;2023-02-02T10:46:39;156996.41;;;6.96;88.97
7940;BME280;4015;48.888;9.226;2023-02-02T10:49:36;156949.25;;;6.78;88.51
7940;BME280;4015;48.888;9.226;2023-02-02T10:52:21;156984.97;;;6.92;89.42
7940;BME280;4015;48.888;9.226;2023-02-02T10:55:01;156995.13;;;6.96;89.58
7940;BME280;4015;48.888;9.226;2023-02-02T11:00:18;157035.94;;;7.12;86.51
7940;BME280;4015;48.888;9.226;2023-02-02T11:02:48;157024.44;;;7.08;86.45
7940;BME280;4015;48.888;9.226;2023-02-02T11:05:26;157034.66;;;7.12;87.08
7940;BME280;4015;48.888;9.226;2023-02-02T11:08:16;157055.03;;;7.20;86.73
7940;BME280;4015;48.888;9.226;2023-02-02T11:10:43;157070.34;;;7.26;86.69
7940;BME280;4015;48.888;9.226;2023-02-02T11:13:30;157092.00;;;7.35;85.69
7940;BME280;4015;48.888;9.226;2023-02-02T11:18:42;157132.78;;;7.51;84.94
7940;BME280;4015;48.888;9.226;2023-02-02T11:21:25;157168.47;;;7.65;83.29
7940;BME280;4015;48.888;9.226;2023-02-02T11:24:02;157113.69;;;7.43;83.41
7940;BME280;4015;48.888;9.226;2023-02-02T11:26:55;157131.53;;;7.50;84.17
7940;BME280;4015;48.888;9.226;2023-02-02T11:29:31;157121.31;;;7.46;83.58
7940;BME280;4015;48.888;9.226;2023-02-02T11:31:57;157111.16;;;7.42;84.61
7940;BME280;4015;48.888;9.226;2023-02-02T11:34:25;157126.44;;;7.48;85.04
7940;BME280;4015;48.888;9.226;2023-02-02T11:37:11;157151.91;;;7.58;84.68
7940;BME280;4015;48.888;9.226;2023-02-02T11:39:40;157141.75;;;7.54;84.55
7940;BME280;4015;48.888;9.226;2023-02-02T11:42:15;157108.56;;;7.41;85.05
7940;BME280;4015;48.888;9.226;2023-02-02T11:44:50;157097.13;;;7.37;84.88
7940;BME280;4015;48.888;9.226;2023-02-02T11:47:20;157107.28;;;7.41;85.05
7940;BME280;4015;48.888;9.226;2023-02-02T11:49:49;157085.63;;;7.32;85.30
7940;BME280;4015;48.888;9.226;2023-02-02T11:52:21;157076.69;;;7.28;84.56
7940;BME280;4015;48.888;9.226;2023-02-02T11:54:50;157052.50;;;7.19;84.52
7940;BME280;4015;48.888;9.226;2023-02-02T11:57:27;157027.00;;;7.09;85.50
7940;BME280;4015;48.888;9.226;2023-02-02T12:02:33;157038.47;;;7.13;85.88
7940;BME280;4015;48.888;9.226;2023-02-02T12:07:42;157012.97;;;7.03;86.49
7940;BME280;4015;48.888;9.226;2023-02-02T12:19:20;157002.81;;;6.99;87.64
7940;BME280;4015;48.888;9.226;2023-02-02T12:26:49;156988.78;;;6.93;88.71
7940;BME280;4015;48.888;9.226;2023-02-02T12:32:12;156946.72;;;6.76;88.82
7940;BME280;4015;48.888;9.226;2023-02-02T12:34:57;156942.91;;;6.75;90.11
7940;BME280;4015;48.888;9.226;2023-02-02T12:37:48;156946.72;;;6.76;90.37
7940;BME280;4015;48.888;9.226;2023-02-02T12:40:50;156922.53;;;6.67;90.39
7940;BME280;4015;48.888;9.226;2023-02-02T12:43:41;156923.81;;;6.67;91.54
7940;BME280;4015;48.888;9.226;2023-02-02T12:46:39;156912.31;;;6.63;91.67
7940;BME280;4015;48.888;9.226;2023-02-02T12:52:20;156908.50;;;6.61;90.80
7940;BME280;4015;48.888;9.226;2023-02-02T12:55:22;156886.81;;;6.53;90.67
7940;BME280;4015;48.888;9.226;2023-02-02T12:57:58;156874.13;;;6.47;91.08
7940;BME280;4015;48.888;9.226;2023-02-02T13:06:30;156886.81;;;6.53;91.19
7940;BME280;4015;48.888;9.226;2023-02-02T13:09:11;156875.41;;;6.48;90.83
7940;BME280;4015;48.888;9.226;2023-02-02T13:11:45;156884.28;;;6.52;91.65
7940;BME280;4015;48.888;9.226;2023-02-02T13:16:46;156886.81;;;6.53;90.99
7940;BME280;4015;48.888;9.226;2023-02-02T13:19:38;156905.97;;;6.60;90.44
7940;BME280;4015;48.888;9.226;2023-02-02T13:22:09;156918.69;;;6.65;90.88
7940;BME280;4015;48.888;9.226;2023-02-02T13:24:39;156917.41;;;6.65;89.85
7940;BME280;4015;48.888;9.226;2023-02-02T13:27:09;156922.53;;;6.67;89.51
7940;BME280;4015;48.888;9.226;2023-02-02T13:29:44;156962.00;;;6.83;88.55
7940;BME280;4015;48.888;9.226;2023-02-02T13:32:33;156973.50;;;6.87;88.95
7940;BME280;4015;48.888;9.226;2023-02-02T13:35:02;156996.41;;;6.96;88.22
7940;BME280;4015;48.888;9.226;2023-02-02T13:37:33;156997.69;;;6.97;87.75
7940;BME280;4015;48.888;9.226;2023-02-02T13:50:41;157038.47;;;7.13;87.22
7940;BME280;4015;48.888;9.226;2023-02-02T13:58:54;157030.81;;;7.10;86.33
7940;BME280;4015;48.888;9.226;2023-02-02T14:01:25;157048.69;;;7.17;85.93
7940;BME280;4015;48.888;9.226;2023-02-02T14:03:53;157047.41;;;7.17;85.66
7940;BME280;4015;48.888;9.226;2023-02-02T14:06:21;157034.66;;;7.12;85.65
7940;BME280;4015;48.888;9.226;2023-02-02T14:09:00;157049.97;;;7.18;84.69
7940;BME280;4015;48.888;9.226;2023-02-02T14:11:31;157039.75;;;7.14;85.05
7940;BME280;4015;48.888;9.226;2023-02-02T14:14:19;157046.09;;;7.16;85.17
7940;BME280;4015;48.888;9.226;2023-02-02T14:19:56;157071.59;;;7.26;83.82
7940;BME280;4015;48.888;9.226;2023-02-02T14:22:41;157077.97;;;7.29;83.60
7940;BME280;4015;48.888;9.226;2023-02-02T14:27:59;157092.00;;;7.35;83.33
7940;BME280;4015;48.888;9.226;2023-02-02T14:30:35;157100.94;;;7.38;83.41
7940;BME280;4015;48.888;9.226;2023-02-02T14:33:24;157100.94;;;7.38;84.30
7940;BME280;4015;48.888;9.226;2023-02-02T14:35:54;157097.13;;;7.37;83.51
7940;BME280;4015;48.888;9.226;2023-02-02T14:41:28;157084.38;;;7.32;82.35
7940;BME280;4015;48.888;9.226;2023-02-02T14:44:14;157081.81;;;7.30;82.23
7940;BME280;4015;48.888;9.226;2023-02-02T14:46:40;157086.91;;;7.33;83.18
7940;BME280;4015;48.888;9.226;2023-02-02T14:49:15;157085.63;;;7.32;82.40
7940;BME280;4015;48.888;9.226;2023-02-02T14:51:50;157084.38;;;7.32;81.98
7940;BME280;4015;48.888;9.226;2023-02-02T14:54:21;157085.63;;;7.32;82.80
7940;BME280;4015;48.888;9.226;2023-02-02T14:56:56;157090.72;;;7.34;82.20
7940;BME280;4015;48.888;9.226;2023-02-02T14:59:36;157094.56;;;7.36;82.25
7940;BME280;4015;48.888;9.226;2023-02-02T15:02:19;157099.66;;;7.38;82.25
7940;BME280;4015;48.888;9.226;2023-02-02T15:04:46;157086.91;;;7.33;82.10
7940;BME280;4015;48.888;9.226;2023-02-02T15:09:47;157098.38;;;7.37;82.19
7940;BME280;4015;48.888;9.226;2023-02-02T15:20:13;157123.84;;;7.47;81.60
7940;BME280;4015;48.888;9.226;2023-02-02T15:25:29;157109.88;;;7.42;81.11
7940;BME280;4015;48.888;9.226;2023-02-02T15:28:06;157108.56;;;7.41;81.36